Time;durP1;ratioP1;P1;durP2;ratioP2;P2;SDS_P1;SDS_P2;PMS_P1;PMS_P2;Temp;Humidity;BMP_temperature;BMP_pressure;BME280_temperature;BME280_humidity;BME280_pressure;Samples;Min_cycle;Max_cycle;Signal;HPM_P1;HPM_P2
2023/02/03 00:00:06;;;;;;;12.40;2.67;;;;;;;11.89;67.76;102606.75;5026485;28;20401;-44
2023/02/03 00:02:31;;;;;;;10.45;2.53;;;;;;;11.91;68.02;102607.69;5023944;28;20037;-45
2023/02/03 00:04:56;;;;;;;10.48;2.45;;;;;;;11.96;68.02;102613.94;5027665;28;20049;-44
2023/02/03 00:07:22;;;;;;;10.43;2.45;;;;;;;12.02;67.67;102598.47;5025139;28;20044;-44
2023/02/03 00:09:47;;;;;;;8.77;2.65;;;;;;;12.00;67.64;102615.84;5028894;28;20029;-44
2023/02/03 00:12:13;;;;;;;10.13;2.47;;;;;;;12.19;67.08;102606.09;5023117;28;20398;-44
2023/02/03 00:14:38;;;;;;;10.25;2.40;;;;;;;11.79;67.92;102601.19;5027786;28;20037;-46
2023/02/03 00:17:04;;;;;;;9.98;2.38;;;;;;;11.94;67.62;102605.19;5026088;28;20045;-43
2023/02/03 00:19:29;;;;;;;9.82;2.30;;;;;;;12.07;67.64;102597.84;5021419;28;20057;-45
2023/02/03 00:21:55;;;;;;;9.10;2.50;;;;;;;12.09;67.22;102601.38;5023388;28;20069;-43
2023/02/03 00:24:22;;;;;;;11.30;2.60;;;;;;;11.90;67.87;102608.50;5021669;28;20021;-44
2023/02/03 00:26:48;;;;;;;12.57;2.47;;;;;;;12.46;65.99;102594.75;5022667;28;20048;-47
2023/02/03 00:29:13;;;;;;;10.88;2.10;;;;;;;11.78;67.66;102595.91;5019962;28;20033;-46
2023/02/03 00:31:39;;;;;;;12.50;2.47;;;;;;;11.92;67.01;102597.28;5024570;28;20029;-46
2023/02/03 00:34:05;;;;;;;9.05;1.98;;;;;;;12.08;66.50;102598.69;5025810;28;20041;-47
2023/02/03 00:36:30;;;;;;;11.73;2.30;;;;;;;11.94;67.09;102613.03;5021545;28;20041;-44
2023/02/03 00:38:56;;;;;;;9.88;1.90;;;;;;;12.04;66.64;102623.84;5022811;28;20117;-43
2023/02/03 00:41:22;;;;;;;11.05;1.83;;;;;;;12.38;65.22;102617.19;5018871;28;20040;-43
2023/02/03 00:43:48;;;;;;;8.85;2.60;;;;;;;12.05;66.79;102628.25;5023507;28;20399;-43
2023/02/03 00:46:13;;;;;;;10.45;2.33;;;;;;;11.89;67.22;102618.09;5019803;28;20021;-44
2023/02/03 00:48:39;;;;;;;9.02;2.42;;;;;;;12.24;66.10;102628.88;5023559;28;20029;-48
2023/02/03 00:51:04;;;;;;;10.70;1.90;;;;;;;12.27;65.93;102602.81;5022077;28;20033;-47
2023/02/03 00:53:30;;;;;;;9.23;2.00;;;;;;;12.50;65.14;102610.59;5019464;28;20030;-43
2023/02/03 00:55:55;;;;;;;11.35;2.20;;;;;;;12.07;66.21;102615.25;5023299;28;20120;-45
2023/02/03 00:58:20;;;;;;;10.00;1.95;;;;;;;12.40;65.56;102618.09;5019287;28;20407;-44
2023/02/03 01:00:46;;;;;;;10.13;2.08;;;;;;;12.52;65.04;102608.94;5023085;28;20469;-42
2023/02/03 01:03:11;;;;;;;9.70;1.90;;;;;;;12.50;64.87;102623.69;5019699;28;20044;-44
2023/02/03 01:05:36;;;;;;;11.80;2.25;;;;;;;12.31;65.26;102607.34;5023579;28;20029;-45
2023/02/03 01:08:02;;;;;;;13.82;2.60;;;;;;;12.15;65.58;102614.66;5025092;28;20345;-46
2023/02/03 01:10:28;;;;;;;12.40;1.80;;;;;;;12.25;65.70;102626.34;5019297;28;20039;-43
2023/02/03 01:12:53;;;;;;;7.72;1.80;;;;;;;12.43;64.87;102620.84;5022902;28;20053;-44
2023/02/03 01:15:19;;;;;;;8.45;2.00;;;;;;;11.99;65.74;102595.78;5020096;28;20084;-43
2023/02/03 01:17:44;;;;;;;9.18;2.00;;;;;;;12.26;64.98;102593.22;5022775;28;20515;-45
2023/02/03 01:20:15;;;;;;;10.38;2.08;;;;;;;12.58;63.87;102595.16;5019177;28;20033;-42
2023/02/03 01:22:40;;;;;;;11.63;1.80;;;;;;;12.43;64.61;102595.56;5023676;28;20052;-44
2023/02/03 01:25:06;;;;;;;10.60;1.92;;;;;;;12.27;64.98;102597.59;5024651;28;20479;-45
2023/02/03 01:27:32;;;;;;;8.70;1.58;;;;;;;12.12;64.79;102579.69;5022825;28;20064;-46
2023/02/03 01:29:57;;;;;;;9.55;2.03;;;;;;;12.34;64.73;102579.56;5028415;28;20033;-46
2023/02/03 01:32:22;;;;;;;10.32;1.73;;;;;;;12.26;65.12;102580.16;5022236;28;20148;-43
2023/02/03 01:34:48;;;;;;;9.35;1.70;;;;;;;12.32;64.67;102578.59;5024273;28;20045;-45
2023/02/03 01:37:16;;;;;;;9.63;1.80;;;;;;;12.24;64.64;102582.72;5019041;28;20061;-44
2023/02/03 01:39:41;;;;;;;8.48;1.88;;;;;;;12.02;65.09;102582.78;5023124;28;20128;-43
2023/02/03 01:42:11;;;;;;;9.50;1.80;;;;;;;12.45;64.14;102586.03;5023757;28;20079;-44
2023/02/03 01:44:50;;;;;;;6.85;1.45;;;;;;;12.09;64.96;102570.00;5019755;28;20025;-45
2023/02/03 01:47:33;;;;;;;9.70;1.98;;;;;;;12.07;64.72;102589.09;5020671;28;20051;-44
2023/02/03 01:50:14;;;;;;;11.80;1.70;;;;;;;12.06;65.12;102598.66;5026788;28;20124;-45
2023/02/03 01:52:42;;;;;;;9.23;1.73;;;;;;;12.38;64.20;102577.94;5028449;28;20037;-43
2023/02/03 01:55:12;;;;;;;9.43;1.95;;;;;;;12.62;63.70;102581.38;5030522;28;20049;-45
2023/02/03 01:57:46;;;;;;;9.68;1.67;;;;;;;12.40;64.39;102571.91;5026324;28;20039;-45
2023/02/03 02:00:12;;;;;;;6.78;1.55;;;;;;;12.36;64.38;102566.53;5026306;28;20117;-44
2023/02/03 02:02:38;;;;;;;9.52;1.50;;;;;;;12.11;65.46;102563.09;5029572;28;20093;-44
2023/02/03 02:05:24;;;;;;;7.40;1.70;;;;;;;12.44;64.61;102559.84;5030472;28;20104;-44
2023/02/03 02:07:50;;;;;;;6.70;1.60;;;;;;;12.47;63.90;102559.94;5009006;28;20476;-48
2023/02/03 02:10:16;;;;;;;8.82;1.63;;;;;;;12.00;65.32;102566.19;5026164;28;20488;-42
2023/02/03 02:12:42;;;;;;;7.45;1.70;;;;;;;12.32;64.09;102554.22;5028920;28;20064;-45
2023/02/03 02:15:08;;;;;;;9.60;1.85;;;;;;;12.45;63.72;102548.50;5030591;28;20025;-45
2023/02/03 02:17:58;;;;;;;6.40;1.95;;;;;;;12.53;64.00;102547.03;5027367;28;20041;-44
2023/02/03 02:20:30;;;;;;;6.65;1.63;;;;;;;12.31;64.29;102545.47;5026551;28;20029;-42
2023/02/03 02:23:09;;;;;;;5.72;1.90;;;;;;;12.26;64.50;102540.94;5031006;28;20033;-43
2023/02/03 02:25:49;;;;;;;7.07;1.80;;;;;;;12.31;64.29;102541.97;5026502;28;20056;-46
2023/02/03 02:28:45;;;;;;;6.97;1.67;;;;;;;12.11;64.85;102542.19;5022588;28;20035;-47
2023/02/03 02:31:55;;;;;;;6.80;1.63;;;;;;;12.38;64.05;102555.28;5021938;28;20499;-45
2023/02/03 02:34:38;;;;;;;7.90;1.67;;;;;;;12.33;64.23;102562.09;5022595;28;20063;-44
2023/02/03 02:37:15;;;;;;;4.82;1.70;;;;;;;12.63;63.75;102553.44;5026707;28;20044;-44
2023/02/03 02:39:52;;;;;;;10.27;1.80;;;;;;;12.53;63.99;102562.75;5023611;28;20038;-44
2023/02/03 02:42:31;;;;;;;5.80;1.70;;;;;;;12.41;64.51;102567.56;5022473;28;20042;-46
2023/02/03 02:45:10;;;;;;;5.68;1.70;;;;;;;12.19;64.75;102553.81;5027168;28;20128;-45
2023/02/03 02:47:36;;;;;;;7.00;1.67;;;;;;;12.20;64.73;102560.78;5025987;28;20037;-48
2023/02/03 02:50:10;;;;;;;8.98;1.77;;;;;;;12.55;64.29;102563.69;5027795;28;20064;-47
2023/02/03 02:52:40;;;;;;;6.85;1.70;;;;;;;12.69;63.55;102559.75;5003571;28;20029;-44
2023/02/03 02:55:33;;;;;;;9.18;1.85;;;;;;;12.31;64.30;102568.13;5025726;28;20044;-48
2023/02/03 02:58:12;;;;;;;9.27;1.60;;;;;;;12.27;64.09;102558.38;5002283;28;20037;-43
2023/02/03 03:00:40;;;;;;;8.73;1.80;;;;;;;12.74;63.16;102554.69;5020577;28;20053;-44
2023/02/03 03:03:23;;;;;;;9.82;2.30;;;;;;;12.35;64.18;102526.41;5025916;28;20033;-45
2023/02/03 03:06:02;;;;;;;7.30;1.48;;;;;;;12.30;64.52;102521.88;5021638;28;20422;-44
2023/02/03 03:08:44;;;;;;;6.70;1.60;;;;;;;12.52;64.43;102517.38;5023228;28;20065;-44
2023/02/03 03:11:10;;;;;;;8.43;2.03;;;;;;;12.28;64.34;102526.16;5022973;28;20418;-43
2023/02/03 03:13:55;;;;;;;9.57;1.80;;;;;;;12.26;64.81;102520.00;5025247;28;20030;-45
2023/02/03 03:16:24;;;;;;;6.00;1.30;;;;;;;12.31;64.83;102536.72;5021068;28;20099;-44
2023/02/03 03:18:59;;;;;;;10.52;1.65;;;;;;;12.29;64.88;102499.19;5024882;28;20044;-46
2023/02/03 03:21:33;;;;;;;5.25;1.48;;;;;;;12.43;64.87;102540.63;5020434;28;20435;-44
2023/02/03 03:24:04;;;;;;;6.43;1.45;;;;;;;12.05;65.30;102567.22;5025243;28;20033;-45
2023/02/03 03:26:52;;;;;;;8.38;1.58;;;;;;;12.26;65.17;102547.03;5021245;28;20044;-43
2023/02/03 03:29:25;;;;;;;7.90;1.45;;;;;;;12.57;64.19;102531.47;5021775;28;20037;-44
2023/02/03 03:31:52;;;;;;;9.50;1.70;;;;;;;12.54;64.55;102551.44;5024414;28;20025;-45
2023/02/03 03:34:18;;;;;;;7.30;1.77;;;;;;;12.64;64.32;102552.59;5021089;28;20083;-45
2023/02/03 03:37:00;;;;;;;11.48;1.60;;;;;;;12.08;65.92;102549.91;5024911;28;20029;-44
2023/02/03 03:39:39;;;;;;;7.57;1.60;;;;;;;12.29;65.44;102560.22;5021188;28;20029;-43
2023/02/03 03:42:45;;;;;;;10.40;1.75;;;;;;;12.34;64.96;102544.66;5024335;28;20082;-46
2023/02/03 03:45:15;;;;;;;7.07;1.90;;;;;;;12.30;65.22;102569.84;5021890;28;20095;-44
2023/02/03 03:48:02;;;;;;;7.90;1.60;;;;;;;12.19;65.94;102545.97;5020797;28;20120;-43
2023/02/03 03:50:33;;;;;;;9.10;1.60;;;;;;;12.21;65.98;102543.38;5002397;28;20053;-45
2023/02/03 03:53:01;;;;;;;9.30;1.50;;;;;;;12.33;65.63;102548.13;5024498;28;20488;-45
2023/02/03 03:55:29;;;;;;;8.98;2.28;;;;;;;12.62;64.30;102554.31;5002354;28;20064;-46
2023/02/03 03:58:03;;;;;;;6.85;1.80;;;;;;;12.28;65.92;102547.97;5024357;28;20576;-45
2023/02/03 04:00:32;;;;;;;10.93;1.92;;;;;;;12.25;65.97;102550.50;5019011;28;20048;-45
2023/02/03 04:03:04;;;;;;;8.40;1.70;;;;;;;12.23;65.82;102567.84;5023888;28;20439;-44
2023/02/03 04:05:30;;;;;;;10.23;1.80;;;;;;;12.30;65.71;102558.50;5028537;22;20049;-41
2023/02/03 04:07:56;;;;;;;8.48;1.48;;;;;;;12.03;66.42;102551.50;5025469;28;20025;-41
2023/02/03 04:10:30;;;;;;;13.63;1.90;;;;;;;12.27;66.00;102561.00;5019252;28;20025;-39
2023/02/03 04:12:55;;;;;;;11.95;2.03;;;;;;;12.06;66.13;102569.91;5021722;28;20508;-40
2023/02/03 04:15:20;;;;;;;10.18;1.52;;;;;;;12.28;66.09;102568.00;5019292;28;20067;-42
2023/02/03 04:17:46;;;;;;;10.40;1.50;;;;;;;12.17;65.93;102557.19;5023133;28;20037;-44
2023/02/03 04:20:11;;;;;;;10.85;1.80;;;;;;;12.10;66.30;102557.81;5019044;28;20268;-41
2023/02/03 04:22:37;;;;;;;9.25;1.80;;;;;;;11.85;66.96;102545.63;5022614;28;20414;-44
2023/02/03 04:25:02;;;;;;;5.90;1.80;;;;;;;12.05;66.45;102554.16;5022957;28;20035;-40
2023/02/03 04:27:28;;;;;;;10.38;1.92;;;;;;;11.96;66.76;102554.72;5019255;28;25621;-40
2023/02/03 04:29:53;;;;;;;12.32;1.60;;;;;;;12.33;65.56;102562.09;5023178;28;20043;-39
2023/02/03 04:32:19;;;;;;;5.63;1.50;;;;;;;12.28;65.54;102554.94;5018739;28;20041;-46
2023/02/03 04:34:44;;;;;;;9.25;1.55;;;;;;;12.24;66.11;102550.44;5022933;28;20075;-40
2023/02/03 04:37:10;;;;;;;9.57;2.03;;;;;;;12.25;65.36;102547.88;5018660;28;20103;-46
2023/02/03 04:39:35;;;;;;;12.68;1.92;;;;;;;12.15;66.37;102557.13;5022650;28;20056;-42
2023/02/03 04:42:00;;;;;;;8.55;1.58;;;;;;;11.98;66.63;102557.41;5021923;28;20064;-41
2023/02/03 04:44:26;;;;;;;7.97;1.45;;;;;;;11.88;66.63;102548.38;5019067;28;20404;-43
2023/02/03 04:46:51;;;;;;;7.55;1.45;;;;;;;12.34;65.50;102553.41;5022179;28;20063;-45
2023/02/03 04:49:16;;;;;;;10.15;2.03;;;;;;;12.23;65.84;102552.16;5019158;28;20033;-42
2023/02/03 04:51:43;;;;;;;10.52;1.80;;;;;;;11.95;66.50;102560.81;5022111;28;20045;-42
2023/02/03 04:54:09;;;;;;;9.68;1.70;;;;;;;11.90;66.96;102558.84;5023369;28;20026;-44
2023/02/03 04:56:34;;;;;;;8.65;1.77;;;;;;;11.94;66.71;102568.59;5019075;28;20114;-41
2023/02/03 04:59:00;;;;;;;9.18;1.83;;;;;;;11.87;67.14;102557.03;5022643;28;20451;-41
2023/02/03 05:01:25;;;;;;;13.50;2.10;;;;;;;11.97;66.53;102563.47;5018137;28;20037;-44
2023/02/03 05:03:50;;;;;;;7.97;1.90;;;;;;;12.08;66.54;102556.88;5022644;28;20111;-45
2023/02/03 05:06:16;;;;;;;9.20;1.65;;;;;;;12.04;66.53;102563.72;5018378;28;20052;-41
2023/02/03 05:08:41;;;;;;;10.57;1.70;;;;;;;11.92;67.22;102554.56;5022303;28;20029;-42
2023/02/03 05:11:06;;;;;;;15.15;2.33;;;;;;;12.12;65.86;102556.16;5021260;28;20030;-41
2023/02/03 05:13:32;;;;;;;12.57;2.05;;;;;;;12.26;66.23;102561.84;5018428;28;20041;-41
2023/02/03 05:15:57;;;;;;;9.07;1.90;;;;;;;11.98;66.86;102555.69;5021932;28;20026;-42
2023/02/03 05:18:22;;;;;;;11.40;2.05;;;;;;;12.09;66.40;102559.53;5018282;28;20030;-40
2023/02/03 05:20:48;;;;;;;8.88;1.83;;;;;;;12.11;66.22;102554.38;5021649;28;20037;-41
2023/02/03 05:23:13;;;;;;;13.32;1.90;;;;;;;11.80;67.50;102562.88;5017974;28;20404;-40
2023/02/03 05:25:39;;;;;;;11.85;1.63;;;;;;;12.09;66.72;102575.22;5022187;28;20399;-45
2023/02/03 05:28:04;;;;;;;8.80;1.98;;;;;;;11.98;66.81;102568.75;5021858;28;20026;-42
2023/02/03 05:30:29;;;;;;;12.90;1.83;;;;;;;12.12;66.64;102558.78;5018025;28;20410;-41
2023/02/03 05:32:55;;;;;;;12.93;2.05;;;;;;;12.13;66.48;102565.78;5022229;28;20048;-41
2023/02/03 05:35:20;;;;;;;11.60;2.03;;;;;;;12.09;66.76;102567.38;5018711;28;20037;-42
2023/02/03 05:37:45;;;;;;;14.48;2.13;;;;;;;12.31;65.70;102584.69;5023829;28;20060;-42
2023/02/03 05:42:56;;;;;;;10.77;1.63;;;;;;;11.85;67.41;102566.53;5025149;28;20036;-42
2023/02/03 05:45:22;;;;;;;12.25;2.20;;;;;;;11.88;68.04;102563.16;5020931;28;20128;-43
2023/02/03 05:47:47;;;;;;;8.57;1.80;;;;;;;12.04;67.62;102555.00;5023132;28;20040;-41
2023/02/03 05:50:12;;;;;;;9.93;1.85;;;;;;;11.86;68.15;102541.28;5018472;28;20041;-42
2023/02/03 05:52:37;;;;;;;15.57;1.90;;;;;;;12.03;67.35;102540.16;5021243;28;20404;-42
2023/02/03 05:55:03;;;;;;;11.10;2.58;;;;;;;12.07;67.34;102539.44;5022608;28;20048;-41
2023/02/03 05:57:28;;;;;;;12.75;2.40;;;;;;;11.64;68.42;102550.09;5019250;28;20045;-41
2023/02/03 05:59:54;;;;;;;14.23;1.90;;;;;;;11.92;67.58;102565.91;5022647;28;20083;-44
2023/02/03 06:02:19;;;;;;;9.52;1.98;;;;;;;11.91;67.87;102556.28;5017801;28;20069;-42
2023/02/03 06:04:45;;;;;;;10.27;1.90;;;;;;;11.81;68.06;102562.06;5021523;28;20037;-40
2023/02/03 06:07:10;;;;;;;9.73;2.00;;;;;;;12.07;67.76;102573.41;5019626;28;20091;-40
2023/02/03 06:09:35;;;;;;;11.75;2.35;;;;;;;11.88;68.39;102552.69;5026133;28;20116;-40
2023/02/03 06:12:01;;;;;;;13.02;1.95;;;;;;;11.69;68.00;102523.28;5024882;28;20480;-42
2023/02/03 06:14:27;;;;;;;13.60;2.00;;;;;;;11.45;69.49;102565.94;5018434;28;20026;-41
2023/02/03 06:16:52;;;;;;;12.75;2.03;;;;;;;11.55;69.25;102553.25;5021857;28;20049;-43
2023/02/03 06:19:18;;;;;;;13.13;2.35;;;;;;;11.78;68.64;102564.53;5017848;28;20029;-43
2023/02/03 06:21:43;;;;;;;11.38;2.45;;;;;;;11.62;69.20;102543.91;5020925;28;20029;-42
2023/02/03 06:24:09;;;;;;;11.55;2.30;;;;;;;11.52;69.68;102542.69;5020129;28;20033;-39
2023/02/03 06:26:35;;;;;;;11.20;1.90;;;;;;;11.90;68.48;102553.63;5019320;28;20172;-41
2023/02/03 06:29:00;;;;;;;12.93;2.17;;;;;;;11.89;68.34;102550.16;5021390;28;20116;-42
2023/02/03 06:31:26;;;;;;;15.45;2.08;;;;;;;11.67;69.34;102552.78;5016866;28;20044;-42
2023/02/03 06:33:51;;;;;;;13.57;1.95;;;;;;;11.55;69.77;102581.09;5021847;28;20038;-40
2023/02/03 06:36:16;;;;;;;10.15;1.98;;;;;;;11.49;69.37;102568.69;5019631;28;20045;-40
2023/02/03 06:38:41;;;;;;;13.43;1.92;;;;;;;11.80;68.80;102583.78;5024579;28;20033;-41
2023/02/03 06:41:07;;;;;;;9.95;1.92;;;;;;;11.96;68.29;102579.97;5024388;28;20507;-43
2023/02/03 06:43:34;;;;;;;11.90;1.92;;;;;;;11.90;68.91;102596.31;5020901;28;20567;-42
2023/02/03 06:45:59;;;;;;;12.38;2.17;;;;;;;11.75;69.24;102588.84;5025029;28;20412;-43
2023/02/03 06:48:24;;;;;;;11.82;2.17;;;;;;;12.15;67.65;102585.88;5021071;28;20029;-41
2023/02/03 06:50:50;;;;;;;9.07;2.00;;;;;;;12.00;68.00;102597.56;5024351;28;20527;-41
2023/02/03 06:53:15;;;;;;;15.50;2.22;;;;;;;11.82;68.50;102607.38;5021242;28;20255;-43
2023/02/03 06:55:40;;;;;;;10.65;1.98;;;;;;;11.86;69.22;102615.38;5024365;28;20029;-43
2023/02/03 06:58:06;;;;;;;11.85;2.17;;;;;;;11.75;69.50;102619.31;5024559;28;20064;-44
2023/02/03 07:00:31;;;;;;;13.18;2.20;;;;;;;11.70;69.70;102619.13;5020541;28;20033;-40
2023/02/03 07:02:58;;;;;;;10.23;2.30;;;;;;;11.68;69.24;102617.28;5025047;28;20128;-41
2023/02/03 07:05:24;;;;;;;9.25;2.10;;;;;;;11.45;70.26;102611.22;5020422;28;20045;-40
2023/02/03 07:07:50;;;;;;;13.07;2.38;;;;;;;12.09;68.39;102617.06;5025211;28;20341;-40
2023/02/03 07:10:16;;;;;;;13.80;2.20;;;;;;;12.16;68.27;102618.16;5020809;28;20160;-40
2023/02/03 07:12:41;;;;;;;14.85;2.45;;;;;;;11.65;69.93;102615.44;5024829;28;20037;-44
2023/02/03 07:15:07;;;;;;;13.00;2.22;;;;;;;11.90;68.92;102605.88;5023736;28;20036;-42
2023/02/03 07:17:33;;;;;;;12.13;2.20;;;;;;;11.70;69.95;102633.91;5020360;28;20064;-40
2023/02/03 07:19:58;;;;;;;9.20;2.20;;;;;;;11.62;70.78;102641.47;5024565;28;20356;-40
2023/02/03 07:22:24;;;;;;;14.85;2.63;;;;;;;11.84;69.72;102632.69;5020335;28;20044;-39
2023/02/03 07:24:49;;;;;;;12.23;2.40;;;;;;;11.81;69.24;102634.31;5026613;28;20446;-41
2023/02/03 07:27:14;;;;;;;11.63;1.75;;;;;;;11.52;70.27;102641.06;5022205;28;20161;-39
2023/02/03 07:29:40;;;;;;;12.85;2.13;;;;;;;11.71;69.95;102628.72;5025728;28;20064;-42
2023/02/03 07:32:05;;;;;;;12.45;2.13;;;;;;;11.67;70.46;102611.16;5024960;28;20041;-40
2023/02/03 07:34:30;;;;;;;15.75;2.58;;;;;;;12.17;68.47;102631.28;5021029;28;20045;-45
2023/02/03 07:36:56;;;;;;;12.18;2.40;;;;;;;12.19;68.66;102626.13;5026494;28;20038;-42
2023/02/03 07:39:21;;;;;;;16.83;2.60;;;;;;;11.85;69.56;102623.13;5022517;28;20030;-41
2023/02/03 07:41:47;;;;;;;8.60;2.45;;;;;;;11.94;69.34;102613.91;5025263;28;20066;-41
2023/02/03 07:44:12;;;;;;;11.85;2.30;;;;;;;11.95;69.32;102614.81;5020118;28;20053;-40
2023/02/03 07:46:43;;;;;;;16.77;2.60;;;;;;;11.78;69.42;102608.97;5026463;28;20519;-42
2023/02/03 07:49:12;;;;;;;11.77;2.55;;;;;;;12.05;68.95;102619.53;5026537;28;20029;-41
2023/02/03 07:51:38;;;;;;;12.40;1.98;;;;;;;12.02;68.70;102619.41;5022276;28;20029;-42
2023/02/03 07:54:03;;;;;;;10.13;1.90;;;;;;;12.00;68.65;102632.44;5025617;28;20450;-42
2023/02/03 07:56:31;;;;;;;9.30;1.95;;;;;;;11.96;68.26;102622.69;5022875;28;21037;-41
2023/02/03 07:58:57;;;;;;;7.93;2.30;;;;;;;11.90;68.72;102639.88;5024667;28;20041;-43
2023/02/03 08:01:22;;;;;;;11.43;2.08;;;;;;;12.03;68.60;102639.47;5021603;28;20099;-41
2023/02/03 08:03:47;;;;;;;12.32;2.13;;;;;;;11.93;68.64;102647.84;5026198;28;20120;-44
2023/02/03 08:06:13;;;;;;;13.27;2.15;;;;;;;11.86;69.10;102643.22;5021641;28;20565;-43
2023/02/03 08:08:39;;;;;;;11.02;2.58;;;;;;;12.11;68.22;102656.34;5027064;28;20151;-45
2023/02/03 08:11:05;;;;;;;10.75;2.30;;;;;;;11.97;68.81;102653.22;5026656;28;20029;-41
2023/02/03 08:13:31;;;;;;;9.48;1.98;;;;;;;12.13;68.70;102660.78;5023061;28;20040;-41
2023/02/03 08:15:56;;;;;;;10.50;2.42;;;;;;;12.37;67.60;102665.09;5025746;28;20026;-40
2023/02/03 08:18:22;;;;;;;10.05;2.28;;;;;;;12.10;68.54;102671.13;5021278;28;20111;-43
2023/02/03 08:20:47;;;;;;;9.55;2.10;;;;;;;11.82;69.00;102681.44;5022917;28;20029;-41
2023/02/03 08:23:13;;;;;;;15.23;2.00;;;;;;;12.09;68.76;102679.81;5018838;28;20450;-41
2023/02/03 08:25:39;;;;;;;16.00;2.72;;;;;;;12.64;67.12;102670.34;5023032;28;20511;-42
2023/02/03 08:28:04;;;;;;;12.50;2.20;;;;;;;12.38;67.82;102677.34;5023366;28;20033;-44
2023/02/03 08:30:29;;;;;;;14.25;2.28;;;;;;;12.13;68.25;102659.91;5018454;28;20121;-42
2023/02/03 08:32:56;;;;;;;11.20;2.03;;;;;;;12.11;68.44;102666.78;5023119;28;20025;-42
2023/02/03 08:35:21;;;;;;;15.57;2.58;;;;;;;12.10;68.66;102680.69;5018921;28;20095;-41
2023/02/03 08:37:46;;;;;;;13.57;2.38;;;;;;;12.00;68.86;102684.72;5022633;28;20473;-41
2023/02/03 08:40:12;;;;;;;13.77;2.25;;;;;;;12.19;68.26;102687.16;5018759;28;20036;-42
2023/02/03 08:42:37;;;;;;;9.63;1.98;;;;;;;12.03;68.86;102674.34;5022097;28;20142;-41
2023/02/03 08:45:04;;;;;;;9.32;2.15;;;;;;;12.19;68.71;102681.03;5022558;28;20033;-40
2023/02/03 08:47:29;;;;;;;12.75;2.30;;;;;;;12.35;68.17;102680.72;5018818;28;20041;-40
2023/02/03 08:49:55;;;;;;;15.10;2.25;;;;;;;12.35;67.83;102679.84;5022645;28;20021;-41
2023/02/03 08:52:20;;;;;;;12.77;2.42;;;;;;;12.02;69.52;102687.34;5018100;28;20030;-41
2023/02/03 08:54:46;;;;;;;15.82;2.20;;;;;;;12.16;68.86;102692.25;5022499;28;20734;-41
2023/02/03 08:57:12;;;;;;;12.30;2.10;;;;;;;12.25;68.30;102691.72;5018794;28;20041;-40
2023/02/03 08:59:39;;;;;;;12.98;2.22;;;;;;;12.40;67.96;102699.19;5021672;28;20037;-46
2023/02/03 09:02:10;;;;;;;10.48;2.25;;;;;;;12.43;67.54;102707.16;5021364;28;20036;-43
2023/02/03 09:04:35;;;;;;;10.02;2.08;;;;;;;12.32;67.80;102696.28;5018517;28;20041;-41
2023/02/03 09:07:02;;;;;;;11.77;2.55;;;;;;;11.99;69.46;102709.06;5022506;28;20041;-40
2023/02/03 09:09:28;;;;;;;16.05;2.53;;;;;;;12.10;69.48;102710.34;5018729;28;20041;-45
2023/02/03 09:12:01;;;;;;;14.95;2.65;;;;;;;12.26;68.79;102714.38;5021903;28;20045;-41
2023/02/03 09:14:30;;;;;;;15.60;2.30;;;;;;;12.37;67.48;102726.16;5018729;28;20073;-42
2023/02/03 09:16:55;;;;;;;12.38;2.20;;;;;;;12.18;68.37;102727.22;5021992;28;20045;-40
2023/02/03 09:19:22;;;;;;;11.70;1.95;;;;;;;12.34;68.02;102717.28;5018145;28;20068;-41
2023/02/03 09:21:48;;;;;;;9.95;2.00;;;;;;;12.34;68.24;102715.56;5021413;28;20454;-39
2023/02/03 09:24:14;;;;;;;14.32;2.33;;;;;;;12.44;67.92;102711.56;5018388;28;20044;-42
2023/02/03 09:26:39;;;;;;;9.55;1.90;;;;;;;12.52;67.26;102715.31;5021869;28;20083;-41
2023/02/03 09:29:06;;;;;;;13.55;2.38;;;;;;;12.76;66.48;102723.09;5021940;28;20113;-42
2023/02/03 09:31:31;;;;;;;12.75;2.15;;;;;;;12.57;67.28;102732.94;5017745;28;20025;-40
2023/02/03 09:33:58;;;;;;;10.65;2.08;;;;;;;12.88;65.85;102724.41;5022193;28;20511;-42
2023/02/03 09:36:23;;;;;;;10.95;2.33;;;;;;;12.74;66.45;102741.41;5017971;28;20025;-45
2023/02/03 09:38:48;;;;;;;9.45;2.13;;;;;;;12.57;66.92;102739.91;5022318;28;20356;-41
2023/02/03 09:41:35;;;;;;;11.80;2.10;;;;;;;12.60;66.94;102738.28;5017396;28;20496;-41
2023/02/03 09:44:06;;;;;;;11.55;2.08;;;;;;;12.96;66.37;102735.13;5022113;28;20034;-40
2023/02/03 09:46:43;;;;;;;13.32;2.20;;;;;;;12.17;67.55;102748.06;5018028;28;20041;-43
2023/02/03 09:49:14;;;;;;;6.95;1.83;;;;;;;13.10;65.72;102730.38;5021834;28;20037;-40
2023/02/03 09:51:48;;;;;;;14.05;2.33;;;;;;;12.46;66.46;102747.38;5020269;28;20038;-41
2023/02/03 09:54:22;;;;;;;;;;;;;;;12.94;65.92;102760.38;5025582;28;20124;-40
2023/02/03 09:56:54;;;;;;;13.48;2.40;;;;;;;12.90;65.76;102755.88;5019541;28;19917;-40
2023/02/03 09:59:20;;;;;;;13.38;2.85;;;;;;;12.85;66.18;102765.31;5018045;28;20515;-42
2023/02/03 10:01:51;;;;;;;7.75;2.00;;;;;;;13.30;64.78;102777.31;5020625;28;20037;-40
2023/02/03 10:04:38;;;;;;;9.23;2.00;;;;;;;13.06;64.70;102760.78;5018029;28;20040;-41
2023/02/03 10:07:42;;;;;;;9.05;1.75;;;;;;;13.12;64.96;102776.72;5023872;22;20127;-75
2023/02/03 10:10:20;;;;;;;12.35;2.03;;;;;;;13.37;64.69;102775.78;5004511;28;20533;-74
2023/02/03 10:13:03;;;;;;;11.73;2.08;;;;;;;13.18;64.72;102771.69;5003990;28;20060;-75
2023/02/03 10:15:45;;;;;;;7.95;1.80;;;;;;;13.49;64.30;102783.16;5021269;28;20038;-75
2023/02/03 10:18:21;;;;;;;8.88;2.15;;;;;;;13.26;64.64;102785.94;5007404;28;20128;-75
2023/02/03 10:20:52;;;;;;;7.82;1.92;;;;;;;12.86;65.58;102791.53;5021266;28;20025;-76
2023/02/03 10:23:27;;;;;;;9.25;1.70;;;;;;;13.24;65.13;102787.59;5010351;28;20025;-76
2023/02/03 10:25:55;;;;;;;8.95;1.70;;;;;;;13.24;64.72;102781.47;5024743;28;20033;-76
2023/02/03 10:28:23;;;;;;;12.38;2.05;;;;;;;13.46;63.84;102786.59;5003712;28;20033;-77
2023/02/03 10:30:53;;;;;;;8.40;1.70;;;;;;;13.44;63.64;102782.13;5024605;28;20091;-75
2023/02/03 10:33:19;;;;;;;11.20;1.70;;;;;;;13.27;64.75;102789.44;5020975;28;20026;-76
2023/02/03 10:35:51;;;;;;;9.95;1.52;;;;;;;13.30;64.44;102786.91;5024743;28;20052;-77
2023/02/03 10:38:40;;;;;;;9.27;2.20;;;;;;;13.15;64.87;102810.00;5003056;28;20034;-76
2023/02/03 10:41:06;;;;;;;10.60;1.85;;;;;;;13.73;63.38;102799.66;5013444;28;20037;-75
2023/02/03 10:43:50;;;;;;;8.48;1.83;;;;;;;13.40;64.05;102818.72;5012552;28;20386;-75
2023/02/03 10:46:22;;;;;;;8.45;1.75;;;;;;;13.55;64.14;102822.66;5020503;28;20033;-77
2023/02/03 10:48:48;;;;;;;10.73;1.63;;;;;;;13.38;63.81;102823.00;5024431;28;20061;-74
2023/02/03 10:51:30;;;;;;;10.18;1.80;;;;;;;13.31;64.21;102815.78;5020142;28;20106;-75
2023/02/03 10:53:57;;;;;;;8.90;1.70;;;;;;;13.47;64.06;102821.53;5025199;28;20083;-76
2023/02/03 10:56:28;;;;;;;7.15;1.70;;;;;;;13.42;64.33;102824.00;5020471;28;20033;-75
2023/02/03 10:58:57;;;;;;;10.32;1.70;;;;;;;13.37;64.24;102821.22;5025872;28;20060;-76
2023/02/03 11:01:25;;;;;;;7.45;1.55;;;;;;;13.30;63.80;102824.47;5020234;28;20033;-77
2023/02/03 11:03:59;;;;;;;8.77;1.80;;;;;;;13.50;63.85;102825.13;5006517;28;20133;-75
2023/02/03 11:06:25;;;;;;;9.05;1.80;;;;;;;13.90;63.00;102829.03;5019879;28;20037;-76
2023/02/03 11:08:51;;;;;;;8.93;2.03;;;;;;;13.31;64.53;102821.03;5006757;28;20478;-76
2023/02/03 11:11:27;;;;;;;7.90;2.08;;;;;;;13.70;63.00;102823.16;5020288;28;20029;-76
2023/02/03 11:14:01;;;;;;;7.80;1.80;;;;;;;13.47;63.71;102811.06;5024326;28;20041;-78
2023/02/03 11:16:27;;;;;;;;;;;;;;;13.68;63.33;102823.09;5020622;28;20044;-76
2023/02/03 11:18:57;;;;;;;8.65;1.80;;;;;;;13.96;62.50;102831.84;5024876;28;19936;-75
2023/02/03 11:21:55;;;;;;;8.02;1.80;;;;;;;13.43;64.05;102819.63;5024757;28;20041;-75
2023/02/03 11:24:30;;;;;;;8.07;1.80;;;;;;;13.56;63.68;102827.06;4996675;28;20075;-76
2023/02/03 11:26:59;;;;;;;7.10;1.70;;;;;;;13.56;63.98;102832.31;5018916;28;20041;-77
2023/02/03 11:29:34;;;;;;;8.82;2.05;;;;;;;13.40;64.28;102825.69;5034042;28;20037;-75
2023/02/03 11:32:34;;;;;;;8.48;1.80;;;;;;;13.61;63.68;102831.59;5015323;28;20489;-75